Aérodrome :
LOGIN :

S'inscrire | Disclaimer

   EN    FR    IT 

 










Légende :    VFR   VFR Marginal   IFR   IFR Intensif   IFR Très Intensif
Visi : 
Plafond : 
>= 8 km
>= 3000ft
5 à 8 km
1000 à 3000 ft
1500m à 5 km
500 à 1000 ft
800 à 1500m
200 à 500 ft
< 800m
< 200 ft
Symboles :   Orages  Brouillard  Fortes neiges  Fortes précipitations  Vent > 20 kt
SIGMETs :   Divers  Orages  Givrage  Turbulence  Onde Orograph.  Cendres Volcan.






- Altitude de l'aérodrome : 314 ft
- Code IATA : OTP


LROP - Bucarest - Henri Coanda

DERNIER METAR :
  • 201830Z 29005KT 9999 FEW025 05/05 Q1020 R88/19//95 NOSIG

METARs EXPIRÉS :
  • 201800Z 28005KT 9999 SCT026 06/06 Q1020 R88/19//95 NOSIG
  • 201730Z 28004KT 9999 FEW025 SCT035 06/06 Q1020 R88/19//95 NOSIG
  • 201700Z 27003KT 9999 SCT026 BKN033 06/06 Q1020 R88/19//95 NOSIG
  • 201630Z 30003KT 9999 FEW033 06/06 Q1020 R88/19//95 NOSIG
  • 201600Z 27005KT CAVOK 07/06 Q1019 R88/19//95 NOSIG

TAF TAF LROP
Valide du 20 à 18h jusqu'au 21 à 18h UTC


201700Z 2018/2118 VRB04KT 9999 BKN030
TEMPO 2101/2106 3000 BR
BECMG 2111/2113 25010KT



MET'MAP, la Météo Aéronautique d'un coup d'oeil ! - Copyright ORBIFLY Décembre 2007 - Disclaimer

ORBIFLY MET'MAP TEAM :

Programmation & Développement : Alexandra Zaïnal
Sur une idée originale de : Baudouin d'Aumeries
Assistance à la programmation : Marc-Olivier Méhu
Soutien technique & logistique : Manuel Goepfert

Contact : metmap@orbifly.com




SOURCES & CREDITS :

   NOAA